createdAt,value
2019-05-30T00:00:09.971Z,101012
2019-05-30T00:05:00.330Z,101019
2019-05-30T00:10:00.541Z,101011
2019-05-30T00:15:00.670Z,101019
2019-05-30T00:20:00.937Z,101010
2019-05-30T00:25:00.139Z,101026
2019-05-30T00:30:01.365Z,101022
2019-05-30T00:35:00.111Z,101028
2019-05-30T00:40:00.182Z,101029
2019-05-30T00:45:00.105Z,101026
2019-05-30T00:50:00.266Z,101032
2019-05-30T00:55:00.617Z,101027
2019-05-30T01:00:00.900Z,101029
2019-05-30T01:05:00.962Z,101021
2019-05-30T01:10:00.945Z,101029
2019-05-30T01:15:01.095Z,101025
2019-05-30T01:20:01.151Z,101025
2019-05-30T01:25:01.148Z,101027
2019-05-30T01:30:01.509Z,101021
2019-05-30T01:35:00.103Z,101020
2019-05-30T01:40:00.100Z,101020
2019-05-30T01:45:00.252Z,101013
2019-05-30T01:50:00.340Z,101010
2019-05-30T01:55:00.458Z,101014
2019-05-30T02:00:00.752Z,101021
2019-05-30T02:05:01.147Z,101017
2019-05-30T02:10:01.107Z,101014
2019-05-30T02:15:01.421Z,101014
2019-05-30T02:20:00.103Z,101026
2019-05-30T02:25:00.075Z,101027
2019-05-30T02:30:00.248Z,101024
2019-05-30T02:35:00.745Z,101020
2019-05-30T02:40:02.953Z,101033
2019-05-30T02:45:01.343Z,101035
2019-05-30T02:50:01.469Z,101032
2019-05-30T02:55:01.688Z,101043
2019-05-30T03:00:01.879Z,101043
2019-05-30T03:05:01.552Z,101044
2019-05-30T03:10:02.152Z,101051
2019-05-30T03:15:02.278Z,101055
2019-05-30T03:20:00.118Z,101055
2019-05-30T03:25:00.124Z,101061
2019-05-30T03:30:00.145Z,101058
2019-05-30T03:35:00.167Z,101059
2019-05-30T03:40:00.127Z,101064
2019-05-30T03:45:00.114Z,101051
2019-05-30T03:50:00.128Z,101056
2019-05-30T03:55:00.107Z,101051
2019-05-30T04:00:00.118Z,101062
2019-05-30T04:05:00.124Z,101058
2019-05-30T04:10:00.117Z,101064
2019-05-30T04:15:00.119Z,101068
2019-05-30T04:20:00.116Z,101068
2019-05-30T04:25:00.110Z,101055
2019-05-30T04:30:00.141Z,101066
2019-05-30T04:35:00.095Z,101064
2019-05-30T04:40:00.120Z,101064
2019-05-30T04:45:00.132Z,101074
2019-05-30T04:50:00.098Z,101067
2019-05-30T04:55:00.124Z,101077
2019-05-30T05:00:00.120Z,101075
2019-05-30T05:05:00.106Z,101074
2019-05-30T05:10:00.078Z,101074
2019-05-30T05:15:00.117Z,101068
2019-05-30T05:20:00.121Z,101074
2019-05-30T05:25:00.103Z,101076
2019-05-30T05:30:00.075Z,101075
2019-05-30T05:35:00.181Z,101068
2019-05-30T05:40:00.108Z,101068
2019-05-30T05:45:00.078Z,101074
2019-05-30T05:50:00.125Z,101083
2019-05-30T05:55:00.107Z,101075
2019-05-30T06:00:00.097Z,101072
2019-05-30T06:05:00.103Z,101080
2019-05-30T06:10:00.106Z,101084
2019-05-30T06:15:00.114Z,101088
2019-05-30T06:20:00.102Z,101089
2019-05-30T06:25:00.109Z,101087
2019-05-30T06:30:00.113Z,101099
2019-05-30T06:35:00.111Z,101092
2019-05-30T06:40:00.112Z,101096
2019-05-30T06:45:00.116Z,101091
2019-05-30T06:50:00.107Z,101096
2019-05-30T06:55:00.110Z,101100
2019-05-30T07:00:00.103Z,101091
2019-05-30T07:05:00.509Z,101079
2019-05-30T07:10:00.076Z,101088
2019-05-30T07:15:00.104Z,101084
2019-05-30T07:20:00.069Z,101093
2019-05-30T07:25:00.105Z,101084
2019-05-30T07:30:00.112Z,101078
2019-05-30T07:35:06.333Z,101087
2019-05-30T07:40:00.099Z,101082
2019-05-30T07:45:00.123Z,101082
2019-05-30T07:50:00.118Z,101093
2019-05-30T07:55:00.106Z,101085
2019-05-30T08:00:00.100Z,101088
2019-05-30T08:05:00.099Z,101089
2019-05-30T08:10:00.113Z,101075
2019-05-30T08:15:00.112Z,101068
2019-05-30T08:20:00.104Z,101075
2019-05-30T08:25:00.069Z,101072
2019-05-30T08:30:00.108Z,101061
2019-05-30T08:35:00.112Z,101067
2019-05-30T08:40:00.098Z,101062
2019-05-30T08:45:00.102Z,101060
2019-05-30T08:50:00.122Z,101060
2019-05-30T08:55:00.181Z,101059
2019-05-30T09:00:00.070Z,101056
2019-05-30T09:05:00.110Z,101050
2019-05-30T09:10:00.095Z,101041
2019-05-30T09:15:00.115Z,101047
2019-05-30T09:20:00.117Z,101045
2019-05-30T09:25:00.107Z,101055
2019-05-30T09:30:00.112Z,101048
2019-05-30T09:35:00.115Z,101032
2019-05-30T09:40:00.120Z,101039
2019-05-30T09:45:00.137Z,101033
2019-05-30T09:50:03.585Z,101040
2019-05-30T09:55:00.107Z,101031
2019-05-30T10:00:00.125Z,101038
2019-05-30T10:05:00.119Z,101028
2019-05-30T10:10:00.123Z,101024
2019-05-30T10:15:00.123Z,101017
2019-05-30T10:20:00.119Z,101028
2019-05-30T10:25:00.114Z,101018
2019-05-30T10:30:00.123Z,101016
2019-05-30T10:35:00.121Z,101017
2019-05-30T10:40:00.129Z,101008
2019-05-30T10:45:00.099Z,101015
2019-05-30T10:50:00.119Z,101005
2019-05-30T10:55:00.136Z,101004
2019-05-30T11:00:00.133Z,100996
2019-05-30T11:05:00.116Z,100994
2019-05-30T11:10:00.091Z,100990
2019-05-30T11:15:00.118Z,100974
2019-05-30T11:20:00.130Z,100974
2019-05-30T11:25:00.124Z,100968
2019-05-30T11:30:00.078Z,100964
2019-05-30T11:35:00.074Z,100966
2019-05-30T11:40:00.126Z,100964
2019-05-30T11:45:00.112Z,100963
2019-05-30T11:50:00.370Z,100954
2019-05-30T11:55:00.384Z,100956
2019-05-30T12:00:00.489Z,100941
2019-05-30T12:05:00.807Z,100944
2019-05-30T12:10:01.045Z,100945
2019-05-30T12:15:01.477Z,100944
2019-05-30T12:20:00.116Z,100940
2019-05-30T12:25:00.587Z,100934
2019-05-30T12:30:00.330Z,100934
2019-05-30T12:35:00.466Z,100929
2019-05-30T12:40:00.619Z,100925
2019-05-30T12:45:05.189Z,100909
2019-05-30T12:50:01.301Z,100918
2019-05-30T12:55:00.843Z,100910
2019-05-30T13:00:00.919Z,100911
2019-05-30T13:05:00.935Z,100909
2019-05-30T13:10:01.212Z,100909
2019-05-30T13:15:00.112Z,100911
2019-05-30T13:20:01.243Z,100918
2019-05-30T13:25:00.124Z,100906
2019-05-30T13:30:00.126Z,100898
2019-05-30T13:35:01.176Z,100892
2019-05-30T13:40:01.097Z,100890
2019-05-30T13:45:00.119Z,100893
2019-05-30T13:50:00.666Z,100876
2019-05-30T13:55:01.350Z,100867
2019-05-30T14:00:00.125Z,100874
2019-05-30T14:05:00.135Z,100866
2019-05-30T14:10:00.284Z,100868
2019-05-30T14:15:00.880Z,100866
2019-05-30T14:20:00.761Z,100873
2019-05-30T14:25:01.243Z,100871
2019-05-30T14:30:00.123Z,100860
2019-05-30T14:35:00.126Z,100872
2019-05-30T14:40:00.127Z,100874
2019-05-30T14:45:00.123Z,100873
2019-05-30T14:50:00.086Z,100865
2019-05-30T14:55:00.117Z,100869
2019-05-30T15:00:00.130Z,100869
2019-05-30T15:05:00.116Z,100870
2019-05-30T15:10:00.119Z,100867
2019-05-30T15:15:00.080Z,100850
2019-05-30T15:20:00.103Z,100853
2019-05-30T15:25:00.123Z,100854
2019-05-30T15:30:00.121Z,100862
2019-05-30T15:35:00.098Z,100838
2019-05-30T15:40:00.072Z,100861
2019-05-30T15:45:00.124Z,100844
2019-05-30T15:50:00.120Z,100848
2019-05-30T15:55:00.106Z,100847
2019-05-30T16:00:00.132Z,100847
2019-05-30T16:05:00.122Z,100846
2019-05-30T16:10:00.091Z,100853
2019-05-30T16:15:00.101Z,100831
2019-05-30T16:20:00.110Z,100838
2019-05-30T16:25:00.132Z,100836
2019-05-30T16:30:00.096Z,100834
2019-05-30T16:35:00.069Z,100836
2019-05-30T16:40:05.653Z,100845
2019-05-30T16:45:00.098Z,100847
2019-05-30T16:50:00.099Z,100844
2019-05-30T16:55:00.113Z,100845
2019-05-30T17:00:00.102Z,100844
2019-05-30T17:05:00.101Z,100850
2019-05-30T17:10:00.119Z,100849
2019-05-30T17:15:00.095Z,100849
2019-05-30T17:20:00.096Z,100846
2019-05-30T17:25:00.086Z,100850
2019-05-30T17:30:00.068Z,100852
2019-05-30T17:35:00.105Z,100863
2019-05-30T17:40:00.098Z,100862
2019-05-30T17:45:00.114Z,100863
2019-05-30T17:50:00.111Z,100858
2019-05-30T17:55:00.107Z,100885
2019-05-30T18:00:00.095Z,100878
2019-05-30T18:05:00.105Z,100879
2019-05-30T18:10:00.110Z,100882
2019-05-30T18:15:00.116Z,100882
2019-05-30T18:20:00.092Z,100881
2019-05-30T18:25:00.107Z,100878
2019-05-30T18:30:00.117Z,100892
2019-05-30T18:35:00.121Z,100900
2019-05-30T18:40:00.104Z,100900
2019-05-30T18:45:00.064Z,100900
2019-05-30T18:50:00.119Z,100899
2019-05-30T18:55:00.117Z,100901
2019-05-30T19:00:00.077Z,100894
2019-05-30T19:05:00.101Z,100899
2019-05-30T19:10:00.067Z,100900
2019-05-30T19:15:00.127Z,100918
2019-05-30T19:20:00.109Z,100918
2019-05-30T19:25:00.100Z,100926
2019-05-30T19:30:00.123Z,100936
2019-05-30T19:35:00.071Z,100938
2019-05-30T19:40:00.102Z,100935
2019-05-30T19:45:00.097Z,100943
2019-05-30T19:50:01.221Z,100949
2019-05-30T19:55:00.108Z,100941
2019-05-30T20:00:00.142Z,100955
2019-05-30T20:05:00.102Z,100950
2019-05-30T20:10:01.628Z,100948
2019-05-30T20:15:00.112Z,100961
2019-05-30T20:20:00.073Z,100958
2019-05-30T20:25:00.109Z,100950
2019-05-30T20:30:00.104Z,100964
2019-05-30T20:35:00.117Z,100957
2019-05-30T20:40:00.113Z,100967
2019-05-30T20:45:00.113Z,100973
2019-05-30T20:50:00.107Z,100970
2019-05-30T20:55:00.079Z,100973
2019-05-30T21:00:00.107Z,100971
2019-05-30T21:05:00.118Z,100962
2019-05-30T21:10:00.162Z,100971
2019-05-30T21:15:00.109Z,100970
2019-05-30T21:20:00.102Z,100969
2019-05-30T21:25:00.127Z,100965
2019-05-30T21:30:00.112Z,100966
2019-05-30T21:35:00.405Z,100967
2019-05-30T21:40:00.105Z,100961
2019-05-30T21:45:00.111Z,100968
2019-05-30T21:50:00.116Z,100967
2019-05-30T21:55:03.185Z,100967
2019-05-30T22:00:00.139Z,100966
2019-05-30T22:05:00.111Z,100972
2019-05-30T22:10:00.078Z,100971
2019-05-30T22:15:00.107Z,100973
2019-05-30T22:20:00.110Z,100965
2019-05-30T22:25:00.114Z,100964
2019-05-30T22:30:00.095Z,100965
2019-05-30T22:35:00.078Z,100960
2019-05-30T22:40:00.122Z,100972
2019-05-30T22:45:00.100Z,100970
2019-05-30T22:50:00.113Z,100970
2019-05-30T22:55:00.115Z,100963
2019-05-30T23:00:00.105Z,100955
2019-05-30T23:05:00.110Z,100942
2019-05-30T23:10:00.110Z,100951
2019-05-30T23:15:00.110Z,100966
2019-05-30T23:20:00.118Z,100962
2019-05-30T23:25:00.148Z,100964
2019-05-30T23:30:00.102Z,100962
2019-05-30T23:35:00.105Z,100957
2019-05-30T23:40:00.116Z,100958
2019-05-30T23:45:00.131Z,100951
2019-05-30T23:50:00.344Z,100948
2019-05-30T23:55:02.234Z,100950
